sensor_id;sensor_type;location;lat;lon;timestamp;P1;durP1;ratioP1;P2;durP2;ratioP2
35462;SDS011;21578;47.892;9.970;2023-04-01T00:01:04;1.10;;;0.20;;
35462;SDS011;21578;47.892;9.970;2023-04-01T00:05:52;0.53;;;0.20;;
35462;SDS011;21578;47.892;9.970;2023-04-01T00:10:41;19.63;;;7.43;;
35462;SDS011;21578;47.892;9.970;2023-04-01T00:15:28;121.90;;;64.50;;
35462;SDS011;21578;47.892;9.970;2023-04-01T00:20:15;241.63;;;90.43;;
35462;SDS011;21578;47.892;9.970;2023-04-01T00:25:02;242.67;;;89.23;;
35462;SDS011;21578;47.892;9.970;2023-04-01T00:29:51;325.43;;;116.00;;
35462;SDS011;21578;47.892;9.970;2023-04-01T00:34:38;575.40;;;221.10;;
35462;SDS011;21578;47.892;9.970;2023-04-01T00:39:25;103.90;;;53.40;;
35462;SDS011;21578;47.892;9.970;2023-04-01T00:44:15;194.50;;;93.90;;
35462;SDS011;21578;47.892;9.970;2023-04-01T00:49:06;70.37;;;37.10;;
35462;SDS011;21578;47.892;9.970;2023-04-01T00:53:55;126.30;;;57.13;;
35462;SDS011;21578;47.892;9.970;2023-04-01T00:58:45;79.00;;;39.03;;
35462;SDS011;21578;47.892;9.970;2023-04-01T01:03:34;40.73;;;21.27;;
35462;SDS011;21578;47.892;9.970;2023-04-01T01:08:25;1.83;;;1.00;;
35462;SDS011;21578;47.892;9.970;2023-04-01T01:13:22;16.80;;;9.93;;
35462;SDS011;21578;47.892;9.970;2023-04-01T01:18:18;16.87;;;9.10;;
35462;SDS011;21578;47.892;9.970;2023-04-01T01:28:40;28.17;;;18.60;;
35462;SDS011;21578;47.892;9.970;2023-04-01T01:38:48;28.53;;;19.63;;
35462;SDS011;21578;47.892;9.970;2023-04-01T01:43:38;21.07;;;11.17;;
35462;SDS011;21578;47.892;9.970;2023-04-01T01:48:27;63.20;;;35.87;;
35462;SDS011;21578;47.892;9.970;2023-04-01T01:53:16;31.33;;;20.13;;
35462;SDS011;21578;47.892;9.970;2023-04-01T01:58:06;43.80;;;26.73;;
35462;SDS011;21578;47.892;9.970;2023-04-01T02:02:58;13.30;;;8.20;;
35462;SDS011;21578;47.892;9.970;2023-04-01T02:07:46;16.90;;;10.97;;
35462;SDS011;21578;47.892;9.970;2023-04-01T02:12:39;58.67;;;30.67;;
35462;SDS011;21578;47.892;9.970;2023-04-01T02:17:29;6.87;;;5.40;;
35462;SDS011;21578;47.892;9.970;2023-04-01T02:22:20;0.90;;;0.50;;
35462;SDS011;21578;47.892;9.970;2023-04-01T02:27:09;0.53;;;0.30;;
35462;SDS011;21578;47.892;9.970;2023-04-01T02:31:57;28.20;;;14.77;;
35462;SDS011;21578;47.892;9.970;2023-04-01T02:36:46;209.10;;;96.30;;
35462;SDS011;21578;47.892;9.970;2023-04-01T02:41:38;153.50;;;60.67;;
35462;SDS011;21578;47.892;9.970;2023-04-01T02:46:25;406.00;;;199.00;;
35462;SDS011;21578;47.892;9.970;2023-04-01T02:51:12;67.77;;;41.50;;
35462;SDS011;21578;47.892;9.970;2023-04-01T02:56:00;94.80;;;55.67;;
35462;SDS011;21578;47.892;9.970;2023-04-01T03:00:47;275.70;;;145.10;;
35462;SDS011;21578;47.892;9.970;2023-04-01T03:05:34;56.70;;;31.83;;
35462;SDS011;21578;47.892;9.970;2023-04-01T03:10:21;70.30;;;42.13;;
35462;SDS011;21578;47.892;9.970;2023-04-01T03:15:11;51.67;;;28.97;;
35462;SDS011;21578;47.892;9.970;2023-04-01T03:19:59;12.03;;;7.97;;
35462;SDS011;21578;47.892;9.970;2023-04-01T03:24:49;7.43;;;5.03;;
35462;SDS011;21578;47.892;9.970;2023-04-01T03:29:36;13.43;;;7.73;;
35462;SDS011;21578;47.892;9.970;2023-04-01T03:34:25;10.00;;;6.57;;
35462;SDS011;21578;47.892;9.970;2023-04-01T03:39:12;3.50;;;3.20;;
35462;SDS011;21578;47.892;9.970;2023-04-01T03:43:59;5.03;;;4.63;;
35462;SDS011;21578;47.892;9.970;2023-04-01T03:48:48;1.23;;;0.80;;
35462;SDS011;21578;47.892;9.970;2023-04-01T03:53:36;5.50;;;4.17;;
35462;SDS011;21578;47.892;9.970;2023-04-01T03:58:23;3.13;;;1.13;;
35462;SDS011;21578;47.892;9.970;2023-04-01T04:03:10;8.47;;;5.33;;
35462;SDS011;21578;47.892;9.970;2023-04-01T04:07:57;5.40;;;4.37;;
35462;SDS011;21578;47.892;9.970;2023-04-01T04:12:46;1.50;;;1.30;;
35462;SDS011;21578;47.892;9.970;2023-04-01T04:17:33;2.00;;;1.47;;
35462;SDS011;21578;47.892;9.970;2023-04-01T04:22:20;2.40;;;0.50;;
35462;SDS011;21578;47.892;9.970;2023-04-01T04:27:07;2.03;;;1.17;;
35462;SDS011;21578;47.892;9.970;2023-04-01T04:31:55;1.37;;;0.80;;
35462;SDS011;21578;47.892;9.970;2023-04-01T04:36:42;0.50;;;0.33;;
35462;SDS011;21578;47.892;9.970;2023-04-01T04:41:36;1.03;;;0.40;;
35462;SDS011;21578;47.892;9.970;2023-04-01T04:46:24;1.60;;;0.30;;
35462;SDS011;21578;47.892;9.970;2023-04-01T04:51:14;1.73;;;0.37;;
35462;SDS011;21578;47.892;9.970;2023-04-01T04:56:01;0.60;;;0.20;;
35462;SDS011;21578;47.892;9.970;2023-04-01T05:00:48;1.13;;;0.30;;
35462;SDS011;21578;47.892;9.970;2023-04-01T05:05:35;2.47;;;0.30;;
35462;SDS011;21578;47.892;9.970;2023-04-01T05:10:24;2.47;;;0.30;;
35462;SDS011;21578;47.892;9.970;2023-04-01T05:15:11;2.50;;;0.33;;
35462;SDS011;21578;47.892;9.970;2023-04-01T05:19:59;1.93;;;0.30;;
35462;SDS011;21578;47.892;9.970;2023-04-01T05:24:45;1.80;;;0.20;;
35462;SDS011;21578;47.892;9.970;2023-04-01T05:29:34;1.37;;;0.30;;
35462;SDS011;21578;47.892;9.970;2023-04-01T05:34:23;2.20;;;0.70;;
35462;SDS011;21578;47.892;9.970;2023-04-01T05:39:10;1.03;;;0.20;;
35462;SDS011;21578;47.892;9.970;2023-04-01T05:43:57;1.80;;;0.23;;
35462;SDS011;21578;47.892;9.970;2023-04-01T05:48:45;1.27;;;0.20;;
35462;SDS011;21578;47.892;9.970;2023-04-01T05:53:32;0.77;;;0.10;;
35462;SDS011;21578;47.892;9.970;2023-04-01T05:58:19;0.20;;;0.10;;
35462;SDS011;21578;47.892;9.970;2023-04-01T06:03:05;3.23;;;1.30;;
35462;SDS011;21578;47.892;9.970;2023-04-01T06:07:55;3.27;;;0.30;;
35462;SDS011;21578;47.892;9.970;2023-04-01T06:12:51;0.57;;;0.10;;
35462;SDS011;21578;47.892;9.970;2023-04-01T06:17:52;1.87;;;0.20;;
35462;SDS011;21578;47.892;9.970;2023-04-01T06:23:02;1.23;;;0.30;;
35462;SDS011;21578;47.892;9.970;2023-04-01T06:28:05;1.30;;;0.30;;
35462;SDS011;21578;47.892;9.970;2023-04-01T06:33:18;1.23;;;0.20;;
35462;SDS011;21578;47.892;9.970;2023-04-01T06:38:22;1.23;;;0.20;;
35462;SDS011;21578;47.892;9.970;2023-04-01T06:43:21;0.80;;;0.27;;
35462;SDS011;21578;47.892;9.970;2023-04-01T06:48:33;0.63;;;0.17;;
35462;SDS011;21578;47.892;9.970;2023-04-01T06:53:31;1.97;;;0.90;;
35462;SDS011;21578;47.892;9.970;2023-04-01T06:58:26;1.03;;;0.40;;
35462;SDS011;21578;47.892;9.970;2023-04-01T07:03:19;0.40;;;0.20;;
35462;SDS011;21578;47.892;9.970;2023-04-01T07:08:10;1.10;;;0.10;;
35462;SDS011;21578;47.892;9.970;2023-04-01T07:13:04;1.70;;;0.10;;
35462;SDS011;21578;47.892;9.970;2023-04-01T07:17:55;0.97;;;0.10;;
35462;SDS011;21578;47.892;9.970;2023-04-01T07:22:45;0.70;;;0.30;;
35462;SDS011;21578;47.892;9.970;2023-04-01T07:27:35;0.23;;;0.20;;
35462;SDS011;21578;47.892;9.970;2023-04-01T07:32:29;0.37;;;0.20;;
35462;SDS011;21578;47.892;9.970;2023-04-01T07:37:22;0.37;;;0.13;;
35462;SDS011;21578;47.892;9.970;2023-04-01T07:42:16;3.20;;;0.40;;
35462;SDS011;21578;47.892;9.970;2023-04-01T07:47:17;0.37;;;0.17;;
35462;SDS011;21578;47.892;9.970;2023-04-01T07:52:15;1.07;;;0.00;;
35462;SDS011;21578;47.892;9.970;2023-04-01T07:57:11;0.27;;;0.10;;
35462;SDS011;21578;47.892;9.970;2023-04-01T08:02:06;1.23;;;0.50;;
35462;SDS011;21578;47.892;9.970;2023-04-01T08:07:06;0.30;;;0.10;;
35462;SDS011;21578;47.892;9.970;2023-04-01T08:12:01;0.37;;;0.10;;
35462;SDS011;21578;47.892;9.970;2023-04-01T08:16:55;1.33;;;0.20;;
35462;SDS011;21578;47.892;9.970;2023-04-01T08:21:49;0.20;;;0.10;;
35462;SDS011;21578;47.892;9.970;2023-04-01T08:26:39;0.40;;;0.00;;
35462;SDS011;21578;47.892;9.970;2023-04-01T08:31:32;0.97;;;0.30;;
35462;SDS011;21578;47.892;9.970;2023-04-01T08:36:24;0.50;;;0.20;;
35462;SDS011;21578;47.892;9.970;2023-04-01T08:41:19;0.80;;;0.50;;
35462;SDS011;21578;47.892;9.970;2023-04-01T08:51:47;6.13;;;2.17;;
35462;SDS011;21578;47.892;9.970;2023-04-01T08:56:50;33.63;;;14.50;;
35462;SDS011;21578;47.892;9.970;2023-04-01T09:07:21;0.10;;;0.10;;
35462;SDS011;21578;47.892;9.970;2023-04-01T09:12:29;0.10;;;0.10;;
35462;SDS011;21578;47.892;9.970;2023-04-01T09:17:45;0.10;;;0.10;;
35462;SDS011;21578;47.892;9.970;2023-04-01T09:22:55;0.93;;;0.17;;
35462;SDS011;21578;47.892;9.970;2023-04-01T09:27:55;0.10;;;0.10;;
35462;SDS011;21578;47.892;9.970;2023-04-01T09:38:11;351.33;;;177.37;;
35462;SDS011;21578;47.892;9.970;2023-04-01T09:43:25;343.37;;;158.13;;
35462;SDS011;21578;47.892;9.970;2023-04-01T09:48:16;179.50;;;86.23;;
35462;SDS011;21578;47.892;9.970;2023-04-01T09:53:16;91.20;;;42.23;;
35462;SDS011;21578;47.892;9.970;2023-04-01T09:58:19;50.83;;;30.00;;
35462;SDS011;21578;47.892;9.970;2023-04-01T10:03:40;29.03;;;22.27;;
35462;SDS011;21578;47.892;9.970;2023-04-01T10:09:00;1.47;;;0.80;;
35462;SDS011;21578;47.892;9.970;2023-04-01T10:14:11;0.10;;;0.10;;
35462;SDS011;21578;47.892;9.970;2023-04-01T10:19:37;0.30;;;0.30;;
35462;SDS011;21578;47.892;9.970;2023-04-01T10:25:07;0.10;;;0.10;;
35462;SDS011;21578;47.892;9.970;2023-04-01T10:35:43;0.10;;;0.10;;
35462;SDS011;21578;47.892;9.970;2023-04-01T10:46:30;0.70;;;0.70;;
35462;SDS011;21578;47.892;9.970;2023-04-01T10:51:43;1.00;;;0.33;;
35462;SDS011;21578;47.892;9.970;2023-04-01T10:56:55;2.33;;;2.23;;
35462;SDS011;21578;47.892;9.970;2023-04-01T11:01:51;0.87;;;0.67;;
35462;SDS011;21578;47.892;9.970;2023-04-01T11:18:33;0.40;;;0.10;;
35462;SDS011;21578;47.892;9.970;2023-04-01T11:23:53;1.87;;;1.73;;
35462;SDS011;21578;47.892;9.970;2023-04-01T11:39:27;30.63;;;18.03;;
35462;SDS011;21578;47.892;9.970;2023-04-01T11:44:21;98.43;;;51.30;;
35462;SDS011;21578;47.892;9.970;2023-04-01T11:49:18;26.37;;;15.00;;
35462;SDS011;21578;47.892;9.970;2023-04-01T11:54:22;136.73;;;79.90;;
35462;SDS011;21578;47.892;9.970;2023-04-01T12:04:50;2.33;;;2.13;;
35462;SDS011;21578;47.892;9.970;2023-04-01T12:10:02;8.03;;;5.57;;
35462;SDS011;21578;47.892;9.970;2023-04-01T12:15:04;46.93;;;27.77;;
35462;SDS011;21578;47.892;9.970;2023-04-01T12:20:10;18.33;;;11.80;;
35462;SDS011;21578;47.892;9.970;2023-04-01T12:25:16;40.07;;;25.93;;
35462;SDS011;21578;47.892;9.970;2023-04-01T12:30:22;33.60;;;21.40;;
35462;SDS011;21578;47.892;9.970;2023-04-01T12:35:20;13.93;;;10.17;;
35462;SDS011;21578;47.892;9.970;2023-04-01T12:40:20;8.70;;;7.80;;
35462;SDS011;21578;47.892;9.970;2023-04-01T12:45:17;20.33;;;15.63;;
35462;SDS011;21578;47.892;9.970;2023-04-01T12:50:22;4.93;;;4.43;;
35462;SDS011;21578;47.892;9.970;2023-04-01T12:55:28;0.50;;;0.50;;
35462;SDS011;21578;47.892;9.970;2023-04-01T13:00:31;4.60;;;3.43;;
35462;SDS011;21578;47.892;9.970;2023-04-01T13:05:44;27.93;;;16.67;;
35462;SDS011;21578;47.892;9.970;2023-04-01T13:10:49;53.83;;;29.03;;
35462;SDS011;21578;47.892;9.970;2023-04-01T13:15:44;26.73;;;13.10;;
35462;SDS011;21578;47.892;9.970;2023-04-01T13:20:40;41.80;;;20.47;;
35462;SDS011;21578;47.892;9.970;2023-04-01T13:25:32;85.27;;;35.00;;
35462;SDS011;21578;47.892;9.970;2023-04-01T13:30:27;165.67;;;75.67;;
35462;SDS011;21578;47.892;9.970;2023-04-01T13:35:23;100.60;;;48.43;;
35462;SDS011;21578;47.892;9.970;2023-04-01T13:40:24;169.37;;;81.60;;
35462;SDS011;21578;47.892;9.970;2023-04-01T13:45:21;146.80;;;75.47;;
35462;SDS011;21578;47.892;9.970;2023-04-01T13:55:30;45.77;;;25.53;;
35462;SDS011;21578;47.892;9.970;2023-04-01T14:00:45;76.27;;;54.30;;
35462;SDS011;21578;47.892;9.970;2023-04-01T14:05:50;3.80;;;2.63;;
35462;SDS011;21578;47.892;9.970;2023-04-01T14:10:43;0.90;;;0.90;;
35462;SDS011;21578;47.892;9.970;2023-04-01T14:15:40;0.60;;;0.40;;
35462;SDS011;21578;47.892;9.970;2023-04-01T14:20:34;0.10;;;0.10;;
35462;SDS011;21578;47.892;9.970;2023-04-01T14:25:43;0.27;;;0.10;;
35462;SDS011;21578;47.892;9.970;2023-04-01T14:30:43;0.13;;;0.10;;
35462;SDS011;21578;47.892;9.970;2023-04-01T14:35:53;1.40;;;1.20;;
35462;SDS011;21578;47.892;9.970;2023-04-01T14:40:54;15.90;;;11.30;;
35462;SDS011;21578;47.892;9.970;2023-04-01T14:45:46;8.60;;;7.13;;
35462;SDS011;21578;47.892;9.970;2023-04-01T14:50:46;10.73;;;8.13;;
35462;SDS011;21578;47.892;9.970;2023-04-01T14:55:36;8.33;;;4.37;;
35462;SDS011;21578;47.892;9.970;2023-04-01T15:00:46;2.40;;;1.90;;
35462;SDS011;21578;47.892;9.970;2023-04-01T15:05:39;6.80;;;5.70;;
35462;SDS011;21578;47.892;9.970;2023-04-01T15:10:39;9.33;;;7.17;;
35462;SDS011;21578;47.892;9.970;2023-04-01T15:15:58;1.03;;;0.93;;
35462;SDS011;21578;47.892;9.970;2023-04-01T15:20:56;0.30;;;0.30;;
35462;SDS011;21578;47.892;9.970;2023-04-01T15:26:05;0.20;;;0.20;;
35462;SDS011;21578;47.892;9.970;2023-04-01T15:31:12;0.17;;;0.10;;
35462;SDS011;21578;47.892;9.970;2023-04-01T15:36:04;0.23;;;0.20;;
35462;SDS011;21578;47.892;9.970;2023-04-01T15:41:03;0.20;;;0.20;;
35462;SDS011;21578;47.892;9.970;2023-04-01T15:46:09;0.97;;;0.20;;
35462;SDS011;21578;47.892;9.970;2023-04-01T15:51:20;0.20;;;0.20;;
35462;SDS011;21578;47.892;9.970;2023-04-01T15:56:28;0.10;;;0.10;;
35462;SDS011;21578;47.892;9.970;2023-04-01T16:01:37;3.20;;;2.33;;
35462;SDS011;21578;47.892;9.970;2023-04-01T16:06:37;21.23;;;12.57;;
35462;SDS011;21578;47.892;9.970;2023-04-01T16:11:43;22.37;;;11.50;;
35462;SDS011;21578;47.892;9.970;2023-04-01T16:16:46;20.00;;;10.57;;
35462;SDS011;21578;47.892;9.970;2023-04-01T16:21:42;270.00;;;131.83;;
35462;SDS011;21578;47.892;9.970;2023-04-01T16:26:35;548.43;;;305.23;;
35462;SDS011;21578;47.892;9.970;2023-04-01T16:31:27;377.07;;;187.17;;
35462;SDS011;21578;47.892;9.970;2023-04-01T16:36:24;437.20;;;226.20;;
35462;SDS011;21578;47.892;9.970;2023-04-01T16:41:16;222.20;;;128.33;;
35462;SDS011;21578;47.892;9.970;2023-04-01T16:46:13;7.10;;;6.40;;
35462;SDS011;21578;47.892;9.970;2023-04-01T16:51:09;1.10;;;1.00;;
35462;SDS011;21578;47.892;9.970;2023-04-01T16:56:07;1.87;;;0.20;;
35462;SDS011;21578;47.892;9.970;2023-04-01T17:00:58;0.20;;;0.10;;
35462;SDS011;21578;47.892;9.970;2023-04-01T17:05:52;0.57;;;0.40;;
35462;SDS011;21578;47.892;9.970;2023-04-01T17:10:51;0.17;;;0.17;;
35462;SDS011;21578;47.892;9.970;2023-04-01T17:15:45;0.83;;;0.20;;
35462;SDS011;21578;47.892;9.970;2023-04-01T17:20:40;33.93;;;19.33;;
35462;SDS011;21578;47.892;9.970;2023-04-01T17:25:34;265.20;;;123.63;;
35462;SDS011;21578;47.892;9.970;2023-04-01T17:30:35;341.60;;;151.20;;
35462;SDS011;21578;47.892;9.970;2023-04-01T17:35:27;177.17;;;72.43;;
35462;SDS011;21578;47.892;9.970;2023-04-01T17:40:31;189.03;;;78.83;;
35462;SDS011;21578;47.892;9.970;2023-04-01T17:45:27;298.20;;;124.63;;
35462;SDS011;21578;47.892;9.970;2023-04-01T17:50:23;120.70;;;57.20;;
35462;SDS011;21578;47.892;9.970;2023-04-01T17:55:22;126.80;;;59.53;;
35462;SDS011;21578;47.892;9.970;2023-04-01T18:00:23;103.33;;;47.63;;
35462;SDS011;21578;47.892;9.970;2023-04-01T18:05:34;121.30;;;55.33;;
35462;SDS011;21578;47.892;9.970;2023-04-01T18:10:31;30.83;;;18.23;;
35462;SDS011;21578;47.892;9.970;2023-04-01T18:15:27;17.57;;;10.83;;
35462;SDS011;21578;47.892;9.970;2023-04-01T18:20:25;4.83;;;2.83;;
35462;SDS011;21578;47.892;9.970;2023-04-01T18:25:21;30.87;;;23.70;;
35462;SDS011;21578;47.892;9.970;2023-04-01T18:30:15;8.07;;;6.17;;
35462;SDS011;21578;47.892;9.970;2023-04-01T18:35:14;7.10;;;6.00;;
35462;SDS011;21578;47.892;9.970;2023-04-01T18:40:11;11.50;;;8.10;;
35462;SDS011;21578;47.892;9.970;2023-04-01T18:45:09;21.17;;;13.73;;
35462;SDS011;21578;47.892;9.970;2023-04-01T18:50:11;2.70;;;2.50;;
35462;SDS011;21578;47.892;9.970;2023-04-01T19:00:26;17.97;;;9.73;;
35462;SDS011;21578;47.892;9.970;2023-04-01T19:05:19;5.67;;;4.77;;
35462;SDS011;21578;47.892;9.970;2023-04-01T19:15:24;1.60;;;1.10;;
35462;SDS011;21578;47.892;9.970;2023-04-01T19:20:20;0.63;;;0.20;;
35462;SDS011;21578;47.892;9.970;2023-04-01T19:25:15;0.40;;;0.40;;
35462;SDS011;21578;47.892;9.970;2023-04-01T19:30:14;0.53;;;0.20;;
35462;SDS011;21578;47.892;9.970;2023-04-01T19:35:12;0.63;;;0.23;;
35462;SDS011;21578;47.892;9.970;2023-04-01T19:40:21;0.67;;;0.20;;
35462;SDS011;21578;47.892;9.970;2023-04-01T19:45:23;0.40;;;0.13;;
35462;SDS011;21578;47.892;9.970;2023-04-01T19:50:24;1.00;;;0.40;;
35462;SDS011;21578;47.892;9.970;2023-04-01T19:55:22;0.33;;;0.27;;
35462;SDS011;21578;47.892;9.970;2023-04-01T20:00:21;0.50;;;0.23;;
35462;SDS011;21578;47.892;9.970;2023-04-01T20:05:17;0.60;;;0.23;;
35462;SDS011;21578;47.892;9.970;2023-04-01T20:10:29;16.67;;;11.10;;
35462;SDS011;21578;47.892;9.970;2023-04-01T20:15:21;7.67;;;6.40;;
35462;SDS011;21578;47.892;9.970;2023-04-01T20:20:15;32.33;;;24.47;;
35462;SDS011;21578;47.892;9.970;2023-04-01T20:25:10;17.73;;;9.90;;
35462;SDS011;21578;47.892;9.970;2023-04-01T20:30:08;19.27;;;10.87;;
35462;SDS011;21578;47.892;9.970;2023-04-01T20:35:31;30.67;;;16.93;;
35462;SDS011;21578;47.892;9.970;2023-04-01T20:40:26;53.43;;;24.67;;
35462;SDS011;21578;47.892;9.970;2023-04-01T20:45:25;108.90;;;49.60;;
35462;SDS011;21578;47.892;9.970;2023-04-01T20:50:19;60.10;;;27.40;;
35462;SDS011;21578;47.892;9.970;2023-04-01T21:00:41;128.93;;;47.03;;
35462;SDS011;21578;47.892;9.970;2023-04-01T21:11:16;89.37;;;35.83;;
35462;SDS011;21578;47.892;9.970;2023-04-01T21:16:14;86.10;;;35.73;;
35462;SDS011;21578;47.892;9.970;2023-04-01T21:21:16;50.33;;;20.83;;
35462;SDS011;21578;47.892;9.970;2023-04-01T21:26:31;42.07;;;17.93;;
35462;SDS011;21578;47.892;9.970;2023-04-01T21:31:38;32.93;;;13.67;;
35462;SDS011;21578;47.892;9.970;2023-04-01T21:36:44;47.07;;;19.07;;
35462;SDS011;21578;47.892;9.970;2023-04-01T21:47:13;55.40;;;22.63;;
35462;SDS011;21578;47.892;9.970;2023-04-01T21:52:42;88.10;;;32.53;;
35462;SDS011;21578;47.892;9.970;2023-04-01T21:57:49;126.57;;;51.73;;
35462;SDS011;21578;47.892;9.970;2023-04-01T22:08:47;48.43;;;20.17;;
35462;SDS011;21578;47.892;9.970;2023-04-01T22:13:42;61.33;;;27.67;;
35462;SDS011;21578;47.892;9.970;2023-04-01T22:18:34;44.37;;;21.70;;
35462;SDS011;21578;47.892;9.970;2023-04-01T22:23:29;30.97;;;16.03;;
35462;SDS011;21578;47.892;9.970;2023-04-01T22:28:24;19.47;;;9.53;;
35462;SDS011;21578;47.892;9.970;2023-04-01T22:33:16;32.50;;;15.00;;
35462;SDS011;21578;47.892;9.970;2023-04-01T22:38:18;61.53;;;28.70;;
35462;SDS011;21578;47.892;9.970;2023-04-01T22:43:19;26.73;;;12.37;;
35462;SDS011;21578;47.892;9.970;2023-04-01T22:48:13;31.07;;;12.77;;
35462;SDS011;21578;47.892;9.970;2023-04-01T22:53:08;115.30;;;46.87;;
35462;SDS011;21578;47.892;9.970;2023-04-01T22:58:08;17.50;;;10.87;;
35462;SDS011;21578;47.892;9.970;2023-04-01T23:03:06;66.07;;;30.83;;
35462;SDS011;21578;47.892;9.970;2023-04-01T23:08:00;177.87;;;82.03;;
35462;SDS011;21578;47.892;9.970;2023-04-01T23:13:12;61.30;;;28.33;;
35462;SDS011;21578;47.892;9.970;2023-04-01T23:18:17;45.43;;;20.87;;
35462;SDS011;21578;47.892;9.970;2023-04-01T23:23:12;64.70;;;28.33;;
35462;SDS011;21578;47.892;9.970;2023-04-01T23:28:30;131.50;;;51.07;;
35462;SDS011;21578;47.892;9.970;2023-04-01T23:33:29;418.93;;;167.27;;
35462;SDS011;21578;47.892;9.970;2023-04-01T23:38:20;49.40;;;20.33;;
35462;SDS011;21578;47.892;9.970;2023-04-01T23:43:13;79.83;;;33.07;;
35462;SDS011;21578;47.892;9.970;2023-04-01T23:48:01;60.83;;;24.63;;
35462;SDS011;21578;47.892;9.970;2023-04-01T23:52:52;38.40;;;16.77;;
35462;SDS011;21578;47.892;9.970;2023-04-01T23:57:42;84.63;;;38.00;;
